Kezdőlap
METAR-TAF:

METAR-TAF

Repülőterek :

Gibraltári repülőtér

Gibraltár, Gibraltár

földrajzi szélesség: 36-09N, földrajzi hosszúság: 005-21W, magasság: 5 m

Jelenlegi meteorológiai megfigyelések

A jelentés 1 órával és 2 perccel ezelõtt készült, 13:50 UTC
Keleti szél 10 kt
Hőmérséklet 26°C
Páratartalom 65%
Légköri nyomás 1020 hPa
Látótávolság 10 km, vagy több
Kevés felhő 1200 lábon

METAR: LXGB 231350Z 08010KT 9999 FEW012 26/19 Q1020 NOSIG

Idő: 16:52 (14:52 UTC)

Előrejelzés

A jelentés 58 perccel ezelõtt készült, 13:54 UTC
Az előrejelzés 23-én 15 óra UTC és 23-én 22 óra UTC között érvényes
Keleti szél 10 kt
Látótávolság 10 km, vagy több
Kevés felhő 1200 lábon
Valószínűség 30% :
23-én 18 óra UTC és 23-én 22 óra UTC között ideiglenes
Látótávolság: 7000 m
Szórványos felhőzet 1200 lábon
Száraz légköri homály

TAF: LXGB 231354Z 2315/2322 09010KT 9999 FEW012 PROB30 TEMPO 2318/2322 7000 HZ SCT012

Meteorológiai megfigyelések és előrejelzések több, mint 4000 repülőtéren (METAR és TAF jelentéseket).

A térképen piros és sárga pontok jelzik az elérhető meteorológiai állomásokat.

Mozgassa az egeret a pont fölött, hogy megjelenjen az állomás neve.

Azután kattintson az időjárási megfigyelések és előrejelzések megtekintéséhez.

A térkép megváltoztatása: kattintson a fekete keresztel jelölt zöld gombra ráközelítéshez, a vonallal jelölt zöld gombra távolításhoz, vagy a zöld nyilakra a szomszédos térképek eléréséhez.


METAR-TAF: